sensor_id;sensor_type;location;lat;lon;timestamp;pressure;altitude;pressure_sealevel;temperature;humidity
20860;BME280;10590;48.154;11.514;2023-04-07T00:03:39;95689.09;;;4.60;50.41
20860;BME280;10590;48.154;11.514;2023-04-07T00:09:01;95680.16;;;4.51;51.29
20860;BME280;10590;48.154;11.514;2023-04-07T00:14:24;95689.09;;;4.60;51.03
20860;BME280;10590;48.154;11.514;2023-04-07T00:19:45;95690.09;;;4.69;51.68
20860;BME280;10590;48.154;11.514;2023-04-07T00:25:07;95675.91;;;4.55;52.50
20860;BME280;10590;48.154;11.514;2023-04-07T00:30:31;95678.53;;;4.60;53.20
20860;BME280;10590;48.154;11.514;2023-04-07T00:35:52;95675.97;;;4.44;53.25
20860;BME280;10590;48.154;11.514;2023-04-07T00:41:17;95679.38;;;4.50;54.16
20860;BME280;10590;48.154;11.514;2023-04-07T00:46:40;95678.13;;;4.42;54.49
20860;BME280;10590;48.154;11.514;2023-04-07T00:52:02;95673.06;;;4.46;53.72
20860;BME280;10590;48.154;11.514;2023-04-07T00:57:24;95666.44;;;4.48;53.84
20860;BME280;10590;48.154;11.514;2023-04-07T01:02:53;95662.97;;;4.53;53.60
20860;BME280;10590;48.154;11.514;2023-04-07T01:08:20;95659.78;;;4.56;53.29
20860;BME280;10590;48.154;11.514;2023-04-07T01:13:48;95655.28;;;4.57;52.80
20860;BME280;10590;48.154;11.514;2023-04-07T01:19:17;95646.09;;;4.49;53.36
20860;BME280;10590;48.154;11.514;2023-04-07T01:25:05;95660.03;;;4.60;52.83
20860;BME280;10590;48.154;11.514;2023-04-07T01:30:38;95648.94;;;4.58;53.13
20860;BME280;10590;48.154;11.514;2023-04-07T01:36:01;95656.59;;;4.59;53.21
20860;BME280;10590;48.154;11.514;2023-04-07T01:41:24;95660.47;;;4.72;53.44
20860;BME280;10590;48.154;11.514;2023-04-07T01:46:47;95657.53;;;4.73;53.78
20860;BME280;10590;48.154;11.514;2023-04-07T01:52:11;95645.06;;;4.79;53.50
20860;BME280;10590;48.154;11.514;2023-04-07T01:57:33;95651.97;;;4.75;54.24
20860;BME280;10590;48.154;11.514;2023-04-07T02:03:00;95651.41;;;4.78;54.64
20860;BME280;10590;48.154;11.514;2023-04-07T02:08:27;95636.63;;;4.77;55.14
20860;BME280;10590;48.154;11.514;2023-04-07T02:13:50;95630.78;;;4.80;56.43
20860;BME280;10590;48.154;11.514;2023-04-07T02:19:15;95636.94;;;4.99;55.96
20860;BME280;10590;48.154;11.514;2023-04-07T02:24:40;95638.06;;;4.93;56.71
20860;BME280;10590;48.154;11.514;2023-04-07T02:30:01;95634.88;;;4.96;57.03
20860;BME280;10590;48.154;11.514;2023-04-07T02:35:25;95630.59;;;5.00;57.97
20860;BME280;10590;48.154;11.514;2023-04-07T02:40:46;95634.81;;;5.01;59.22
20860;BME280;10590;48.154;11.514;2023-04-07T02:46:08;95631.38;;;5.01;60.25
20860;BME280;10590;48.154;11.514;2023-04-07T02:51:31;95630.78;;;5.09;61.32
20860;BME280;10590;48.154;11.514;2023-04-07T02:56:52;95620.03;;;5.00;62.48
20860;BME280;10590;48.154;11.514;2023-04-07T03:02:14;95628.91;;;5.09;62.80
20860;BME280;10590;48.154;11.514;2023-04-07T03:07:37;95633.34;;;4.90;64.66
20860;BME280;10590;48.154;11.514;2023-04-07T03:12:58;95624.38;;;4.86;65.27
20860;BME280;10590;48.154;11.514;2023-04-07T03:18:20;95626.53;;;4.84;66.11
20860;BME280;10590;48.154;11.514;2023-04-07T03:23:43;95625.59;;;4.70;67.32
20860;BME280;10590;48.154;11.514;2023-04-07T03:29:05;95626.84;;;4.77;68.19
20860;BME280;10590;48.154;11.514;2023-04-07T03:34:26;95615.56;;;4.67;69.03
20860;BME280;10590;48.154;11.514;2023-04-07T03:39:49;95616.13;;;4.64;69.65
20860;BME280;10590;48.154;11.514;2023-04-07T03:45:11;95610.84;;;4.64;70.59
20860;BME280;10590;48.154;11.514;2023-04-07T03:50:33;95600.13;;;4.79;70.05
20860;BME280;10590;48.154;11.514;2023-04-07T03:55:56;95604.59;;;4.84;69.77
20860;BME280;10590;48.154;11.514;2023-04-07T04:01:17;95609.34;;;4.82;70.87
20860;BME280;10590;48.154;11.514;2023-04-07T04:06:39;95599.94;;;4.70;70.74
20860;BME280;10590;48.154;11.514;2023-04-07T04:12:02;95596.78;;;4.68;71.86
20860;BME280;10590;48.154;11.514;2023-04-07T04:17:24;95597.09;;;4.28;73.09
20860;BME280;10590;48.154;11.514;2023-04-07T04:22:46;95599.09;;;4.46;72.39
20860;BME280;10590;48.154;11.514;2023-04-07T04:28:09;95601.78;;;4.41;72.32
20860;BME280;10590;48.154;11.514;2023-04-07T04:33:30;95604.19;;;4.32;73.02
20860;BME280;10590;48.154;11.514;2023-04-07T04:38:52;95573.47;;;4.07;72.51
20860;BME280;10590;48.154;11.514;2023-04-07T04:44:15;95601.53;;;4.37;72.64
20860;BME280;10590;48.154;11.514;2023-04-07T04:49:37;95605.97;;;4.47;71.76
20860;BME280;10590;48.154;11.514;2023-04-07T04:54:58;95590.91;;;4.47;71.41
20860;BME280;10590;48.154;11.514;2023-04-07T05:00:22;95595.69;;;4.40;72.36
20860;BME280;10590;48.154;11.514;2023-04-07T05:05:46;95595.53;;;4.61;70.71
20860;BME280;10590;48.154;11.514;2023-04-07T05:11:07;95593.38;;;4.34;71.66
20860;BME280;10590;48.154;11.514;2023-04-07T05:16:30;95590.69;;;4.39;72.12
20860;BME280;10590;48.154;11.514;2023-04-07T05:21:52;95592.97;;;4.51;72.09
20860;BME280;10590;48.154;11.514;2023-04-07T05:27:14;95583.38;;;4.60;72.34
20860;BME280;10590;48.154;11.514;2023-04-07T05:32:37;95590.66;;;4.73;71.71
20860;BME280;10590;48.154;11.514;2023-04-07T05:37:58;95583.47;;;4.50;71.70
20860;BME280;10590;48.154;11.514;2023-04-07T05:43:20;95570.41;;;4.34;71.97
20860;BME280;10590;48.154;11.514;2023-04-07T05:48:43;95586.88;;;4.84;71.00
20860;BME280;10590;48.154;11.514;2023-04-07T05:54:05;95586.59;;;4.86;70.47
20860;BME280;10590;48.154;11.514;2023-04-07T05:59:27;95560.78;;;5.01;69.28
20860;BME280;10590;48.154;11.514;2023-04-07T06:04:50;95584.72;;;5.39;69.19
20860;BME280;10590;48.154;11.514;2023-04-07T06:10:11;95561.19;;;4.61;70.65
20860;BME280;10590;48.154;11.514;2023-04-07T06:15:33;95572.09;;;5.07;69.58
20860;BME280;10590;48.154;11.514;2023-04-07T06:20:56;95566.91;;;5.44;68.80
20860;BME280;10590;48.154;11.514;2023-04-07T06:26:19;95562.59;;;5.06;69.86
20860;BME280;10590;48.154;11.514;2023-04-07T06:31:41;95551.75;;;5.31;69.03
20860;BME280;10590;48.154;11.514;2023-04-07T06:37:05;95541.84;;;5.80;67.21
20860;BME280;10590;48.154;11.514;2023-04-07T06:42:27;95534.25;;;6.29;65.17
20860;BME280;10590;48.154;11.514;2023-04-07T06:47:50;95544.44;;;6.22;65.23
20860;BME280;10590;48.154;11.514;2023-04-07T06:53:13;95537.44;;;6.13;65.83
20860;BME280;10590;48.154;11.514;2023-04-07T06:58:35;95540.69;;;5.86;66.40
20860;BME280;10590;48.154;11.514;2023-04-07T07:03:57;95532.75;;;6.56;63.60
20860;BME280;10590;48.154;11.514;2023-04-07T07:09:21;95546.66;;;6.34;63.72
20860;BME280;10590;48.154;11.514;2023-04-07T07:14:43;95543.19;;;5.77;64.58
20860;BME280;10590;48.154;11.514;2023-04-07T07:20:05;95536.09;;;6.15;63.84
20860;BME280;10590;48.154;11.514;2023-04-07T07:25:28;95552.06;;;6.75;61.73
20860;BME280;10590;48.154;11.514;2023-04-07T07:30:50;95537.22;;;6.74;61.87
20860;BME280;10590;48.154;11.514;2023-04-07T07:36:12;95540.72;;;7.02;61.59
20860;BME280;10590;48.154;11.514;2023-04-07T07:41:34;95546.22;;;7.47;60.34
20860;BME280;10590;48.154;11.514;2023-04-07T07:46:56;95556.13;;;6.54;61.74
20860;BME280;10590;48.154;11.514;2023-04-07T07:52:18;95557.31;;;7.08;60.71
20860;BME280;10590;48.154;11.514;2023-04-07T07:57:41;95547.97;;;6.96;61.35
20860;BME280;10590;48.154;11.514;2023-04-07T08:03:03;95554.22;;;6.73;61.87
20860;BME280;10590;48.154;11.514;2023-04-07T08:08:25;95549.25;;;7.40;59.85
20860;BME280;10590;48.154;11.514;2023-04-07T08:13:48;95535.66;;;7.55;58.54
20860;BME280;10590;48.154;11.514;2023-04-07T08:19:11;95541.41;;;7.08;60.18
20860;BME280;10590;48.154;11.514;2023-04-07T08:24:32;95540.38;;;8.08;56.94
20860;BME280;10590;48.154;11.514;2023-04-07T08:29:59;95538.78;;;8.66;55.58
20860;BME280;10590;48.154;11.514;2023-04-07T08:35:22;95532.44;;;8.75;54.67
20860;BME280;10590;48.154;11.514;2023-04-07T08:40:43;95529.78;;;8.53;54.76
20860;BME280;10590;48.154;11.514;2023-04-07T08:46:08;95535.94;;;9.24;53.07
20860;BME280;10590;48.154;11.514;2023-04-07T08:51:31;95523.28;;;9.38;52.15
20860;BME280;10590;48.154;11.514;2023-04-07T08:56:53;95519.69;;;10.43;49.13
20860;BME280;10590;48.154;11.514;2023-04-07T09:02:17;95512.81;;;11.35;46.99
20860;BME280;10590;48.154;11.514;2023-04-07T09:07:39;95518.38;;;11.13;45.79
20860;BME280;10590;48.154;11.514;2023-04-07T09:13:02;95530.28;;;10.77;47.86
20860;BME280;10590;48.154;11.514;2023-04-07T09:18:26;95525.19;;;12.20;44.33
20860;BME280;10590;48.154;11.514;2023-04-07T09:23:48;95527.53;;;11.41;45.55
20860;BME280;10590;48.154;11.514;2023-04-07T09:29:17;95519.63;;;11.83;44.40
20860;BME280;10590;48.154;11.514;2023-04-07T09:34:41;95521.88;;;15.07;39.21
20860;BME280;10590;48.154;11.514;2023-04-07T09:40:03;95517.59;;;13.57;40.39
20860;BME280;10590;48.154;11.514;2023-04-07T09:45:27;95513.44;;;14.64;37.44
20860;BME280;10590;48.154;11.514;2023-04-07T09:50:50;95509.19;;;13.95;38.62
20860;BME280;10590;48.154;11.514;2023-04-07T09:56:13;95492.22;;;14.59;37.33
20860;BME280;10590;48.154;11.514;2023-04-07T10:01:35;95500.81;;;16.65;34.11
20860;BME280;10590;48.154;11.514;2023-04-07T10:06:59;95505.63;;;18.49;31.18
20860;BME280;10590;48.154;11.514;2023-04-07T10:12:22;95487.50;;;15.47;35.65
20860;BME280;10590;48.154;11.514;2023-04-07T10:17:46;95499.00;;;15.95;34.22
20860;BME280;10590;48.154;11.514;2023-04-07T10:23:15;95485.69;;;18.27;32.61
20860;BME280;10590;48.154;11.514;2023-04-07T10:28:41;95487.72;;;14.63;35.97
20860;BME280;10590;48.154;11.514;2023-04-07T10:34:04;95489.84;;;14.42;38.67
20860;BME280;10590;48.154;11.514;2023-04-07T10:39:28;95493.53;;;13.97;40.47
20860;BME280;10590;48.154;11.514;2023-04-07T10:44:49;95482.78;;;15.91;33.65
20860;BME280;10590;48.154;11.514;2023-04-07T10:50:17;95472.03;;;16.49;33.56
20860;BME280;10590;48.154;11.514;2023-04-07T10:55:41;95476.28;;;16.70;33.03
20860;BME280;10590;48.154;11.514;2023-04-07T11:01:27;95471.69;;;18.85;29.48
20860;BME280;10590;48.154;11.514;2023-04-07T11:06:50;95472.25;;;15.36;35.60
20860;BME280;10590;48.154;11.514;2023-04-07T11:12:23;95476.19;;;13.18;39.06
20860;BME280;10590;48.154;11.514;2023-04-07T11:17:45;95465.19;;;13.72;37.80
20860;BME280;10590;48.154;11.514;2023-04-07T11:23:07;95466.75;;;14.69;37.67
20860;BME280;10590;48.154;11.514;2023-04-07T11:28:30;95459.09;;;14.83;36.54
20860;BME280;10590;48.154;11.514;2023-04-07T11:33:52;95462.31;;;14.45;38.22
20860;BME280;10590;48.154;11.514;2023-04-07T11:39:19;95459.53;;;12.55;40.61
20860;BME280;10590;48.154;11.514;2023-04-07T11:44:45;95468.75;;;13.76;37.78
20860;BME280;10590;48.154;11.514;2023-04-07T11:50:07;95461.06;;;12.89;39.37
20860;BME280;10590;48.154;11.514;2023-04-07T11:55:29;95455.44;;;13.80;37.44
20860;BME280;10590;48.154;11.514;2023-04-07T12:00:55;95444.47;;;15.79;38.12
20860;BME280;10590;48.154;11.514;2023-04-07T12:06:25;95448.06;;;15.36;37.56
20860;BME280;10590;48.154;11.514;2023-04-07T12:11:48;95454.25;;;14.45;37.56
20860;BME280;10590;48.154;11.514;2023-04-07T12:17:20;95459.78;;;13.96;38.35
20860;BME280;10590;48.154;11.514;2023-04-07T12:22:42;95448.13;;;13.03;40.57
20860;BME280;10590;48.154;11.514;2023-04-07T12:28:04;95452.22;;;13.74;39.82
20860;BME280;10590;48.154;11.514;2023-04-07T12:33:27;95460.03;;;13.91;41.03
20860;BME280;10590;48.154;11.514;2023-04-07T12:38:49;95445.72;;;13.35;41.51
20860;BME280;10590;48.154;11.514;2023-04-07T12:44:11;95455.88;;;12.60;41.28
20860;BME280;10590;48.154;11.514;2023-04-07T12:49:34;95452.16;;;12.40;43.77
20860;BME280;10590;48.154;11.514;2023-04-07T12:54:59;95454.28;;;12.47;42.89
20860;BME280;10590;48.154;11.514;2023-04-07T13:00:21;95455.25;;;12.87;41.28
20860;BME280;10590;48.154;11.514;2023-04-07T13:05:47;95425.00;;;12.17;41.64
20860;BME280;10590;48.154;11.514;2023-04-07T13:11:09;95438.94;;;12.23;43.26
20860;BME280;10590;48.154;11.514;2023-04-07T13:16:31;95448.31;;;12.29;43.48
20860;BME280;10590;48.154;11.514;2023-04-07T13:21:54;95452.16;;;12.40;43.99
20860;BME280;10590;48.154;11.514;2023-04-07T13:27:16;95453.06;;;13.01;42.50
20860;BME280;10590;48.154;11.514;2023-04-07T13:32:37;95442.19;;;12.98;42.95
20860;BME280;10590;48.154;11.514;2023-04-07T13:38:01;95450.72;;;12.55;43.58
20860;BME280;10590;48.154;11.514;2023-04-07T13:43:23;95452.19;;;13.22;42.25
20860;BME280;10590;48.154;11.514;2023-04-07T13:48:44;95441.09;;;13.11;43.71
20860;BME280;10590;48.154;11.514;2023-04-07T13:54:08;95444.13;;;13.34;41.93
20860;BME280;10590;48.154;11.514;2023-04-07T13:59:30;95449.84;;;13.20;41.87
20860;BME280;10590;48.154;11.514;2023-04-07T14:04:51;95448.50;;;12.57;44.70
20860;BME280;10590;48.154;11.514;2023-04-07T14:10:14;95443.66;;;12.95;42.41
20860;BME280;10590;48.154;11.514;2023-04-07T14:15:36;95442.00;;;13.03;43.45
20860;BME280;10590;48.154;11.514;2023-04-07T14:20:58;95438.38;;;12.74;43.19
20860;BME280;10590;48.154;11.514;2023-04-07T14:26:22;95444.34;;;13.04;42.59
20860;BME280;10590;48.154;11.514;2023-04-07T14:31:44;95446.59;;;12.45;44.05
20860;BME280;10590;48.154;11.514;2023-04-07T14:37:07;95447.38;;;12.58;44.74
20860;BME280;10590;48.154;11.514;2023-04-07T14:42:31;95421.91;;;12.27;43.82
20860;BME280;10590;48.154;11.514;2023-04-07T14:47:56;95433.28;;;12.03;44.49
20860;BME280;10590;48.154;11.514;2023-04-07T14:53:17;95456.81;;;11.89;46.32
20860;BME280;10590;48.154;11.514;2023-04-07T14:58:40;95453.03;;;11.90;45.49
20860;BME280;10590;48.154;11.514;2023-04-07T15:04:02;95451.19;;;11.61;45.99
20860;BME280;10590;48.154;11.514;2023-04-07T15:09:23;95459.03;;;11.66;46.29
20860;BME280;10590;48.154;11.514;2023-04-07T15:14:49;95455.25;;;11.88;46.55
20860;BME280;10590;48.154;11.514;2023-04-07T15:20:13;95468.66;;;11.59;48.38
20860;BME280;10590;48.154;11.514;2023-04-07T15:25:35;95465.16;;;11.67;46.91
20860;BME280;10590;48.154;11.514;2023-04-07T15:30:58;95460.22;;;11.77;46.09
20860;BME280;10590;48.154;11.514;2023-04-07T15:36:20;95460.72;;;11.71;46.87
20860;BME280;10590;48.154;11.514;2023-04-07T15:41:43;95461.25;;;11.85;47.67
20860;BME280;10590;48.154;11.514;2023-04-07T15:47:06;95462.28;;;11.72;47.01
20860;BME280;10590;48.154;11.514;2023-04-07T15:52:28;95476.22;;;11.57;47.89
20860;BME280;10590;48.154;11.514;2023-04-07T15:57:49;95470.66;;;11.91;46.63
20860;BME280;10590;48.154;11.514;2023-04-07T16:03:13;95483.22;;;11.40;47.59
20860;BME280;10590;48.154;11.514;2023-04-07T16:08:35;95479.44;;;11.12;48.62
20860;BME280;10590;48.154;11.514;2023-04-07T16:13:57;95482.75;;;11.09;49.84
20860;BME280;10590;48.154;11.514;2023-04-07T16:19:22;95475.09;;;10.99;49.12
20860;BME280;10590;48.154;11.514;2023-04-07T16:24:44;95491.22;;;11.11;49.17
20860;BME280;10590;48.154;11.514;2023-04-07T16:30:07;95479.72;;;11.19;48.90
20860;BME280;10590;48.154;11.514;2023-04-07T16:35:30;95493.50;;;10.92;50.58
20860;BME280;10590;48.154;11.514;2023-04-07T16:40:51;95504.09;;;11.09;49.98
20860;BME280;10590;48.154;11.514;2023-04-07T16:46:15;95505.75;;;10.93;49.87
20860;BME280;10590;48.154;11.514;2023-04-07T16:51:38;95509.94;;;11.02;49.81
20860;BME280;10590;48.154;11.514;2023-04-07T16:57:00;95513.53;;;10.51;51.68
20860;BME280;10590;48.154;11.514;2023-04-07T17:02:21;95522.16;;;10.65;51.84
20860;BME280;10590;48.154;11.514;2023-04-07T17:07:46;95526.88;;;10.34;52.53
20860;BME280;10590;48.154;11.514;2023-04-07T17:13:07;95530.34;;;10.26;52.59
20860;BME280;10590;48.154;11.514;2023-04-07T17:18:30;95531.28;;;10.30;52.35
20860;BME280;10590;48.154;11.514;2023-04-07T17:23:53;95525.59;;;10.05;53.85
20860;BME280;10590;48.154;11.514;2023-04-07T17:29:16;95537.69;;;10.11;53.42
20860;BME280;10590;48.154;11.514;2023-04-07T17:34:37;95539.56;;;10.11;54.24
20860;BME280;10590;48.154;11.514;2023-04-07T17:40:01;95549.59;;;9.88;53.88
20860;BME280;10590;48.154;11.514;2023-04-07T17:45:22;95556.81;;;9.96;54.46
20860;BME280;10590;48.154;11.514;2023-04-07T17:50:46;95559.78;;;9.95;54.05
20860;BME280;10590;48.154;11.514;2023-04-07T17:56:09;95564.31;;;9.77;54.25
20860;BME280;10590;48.154;11.514;2023-04-07T18:01:32;95574.03;;;9.90;54.45
20860;BME280;10590;48.154;11.514;2023-04-07T18:06:53;95581.88;;;9.86;54.71
20860;BME280;10590;48.154;11.514;2023-04-07T18:12:16;95578.47;;;9.46;55.67
20860;BME280;10590;48.154;11.514;2023-04-07T18:17:38;95581.69;;;9.66;55.16
20860;BME280;10590;48.154;11.514;2023-04-07T18:23:00;95590.59;;;9.61;55.57
20860;BME280;10590;48.154;11.514;2023-04-07T18:28:23;95605.84;;;9.78;55.32
20860;BME280;10590;48.154;11.514;2023-04-07T18:33:45;95615.56;;;9.74;55.40
20860;BME280;10590;48.154;11.514;2023-04-07T18:39:07;95608.34;;;9.74;55.35
20860;BME280;10590;48.154;11.514;2023-04-07T18:44:30;95618.69;;;9.36;56.24
20860;BME280;10590;48.154;11.514;2023-04-07T18:49:51;95630.50;;;9.52;56.96
20860;BME280;10590;48.154;11.514;2023-04-07T18:55:13;95639.19;;;9.67;56.53
20860;BME280;10590;48.154;11.514;2023-04-07T19:00:36;95644.53;;;9.67;57.02
20860;BME280;10590;48.154;11.514;2023-04-07T19:05:58;95645.00;;;9.69;56.45
20860;BME280;10590;48.154;11.514;2023-04-07T19:11:21;95652.00;;;9.56;56.84
20860;BME280;10590;48.154;11.514;2023-04-07T19:16:44;95662.69;;;9.65;56.70
20860;BME280;10590;48.154;11.514;2023-04-07T19:22:06;95660.53;;;9.44;57.42
20860;BME280;10590;48.154;11.514;2023-04-07T19:27:27;95657.56;;;9.46;57.33
20860;BME280;10590;48.154;11.514;2023-04-07T19:32:50;95665.31;;;9.25;57.98
20860;BME280;10590;48.154;11.514;2023-04-07T19:38:12;95662.63;;;9.25;58.11
20860;BME280;10590;48.154;11.514;2023-04-07T19:43:34;95665.78;;;9.27;58.43
20860;BME280;10590;48.154;11.514;2023-04-07T19:48:57;95661.75;;;9.07;58.92
20860;BME280;10590;48.154;11.514;2023-04-07T19:54:19;95673.38;;;9.11;58.90
20860;BME280;10590;48.154;11.514;2023-04-07T19:59:40;95682.25;;;9.07;58.64
20860;BME280;10590;48.154;11.514;2023-04-07T20:05:04;95681.03;;;9.13;59.26
20860;BME280;10590;48.154;11.514;2023-04-07T20:10:26;95675.84;;;9.08;59.06
20860;BME280;10590;48.154;11.514;2023-04-07T20:15:47;95671.50;;;8.89;60.00
20860;BME280;10590;48.154;11.514;2023-04-07T20:21:11;95684.06;;;8.98;59.39
20860;BME280;10590;48.154;11.514;2023-04-07T20:26:32;95684.94;;;8.84;60.29
20860;BME280;10590;48.154;11.514;2023-04-07T20:31:54;95687.09;;;8.82;60.02
20860;BME280;10590;48.154;11.514;2023-04-07T20:37:17;95689.28;;;8.80;60.13
20860;BME280;10590;48.154;11.514;2023-04-07T20:42:38;95690.31;;;8.71;60.77
20860;BME280;10590;48.154;11.514;2023-04-07T20:48:00;95695.81;;;8.60;61.13
20860;BME280;10590;48.154;11.514;2023-04-07T20:53:24;95695.84;;;8.47;62.25
20860;BME280;10590;48.154;11.514;2023-04-07T20:58:46;95699.53;;;8.23;62.83
20860;BME280;10590;48.154;11.514;2023-04-07T21:04:08;95703.47;;;8.12;63.04
20860;BME280;10590;48.154;11.514;2023-04-07T21:09:31;95701.63;;;7.99;63.88
20860;BME280;10590;48.154;11.514;2023-04-07T21:14:52;95695.50;;;7.85;64.14
20860;BME280;10590;48.154;11.514;2023-04-07T21:20:14;95707.28;;;7.79;64.27
20860;BME280;10590;48.154;11.514;2023-04-07T21:25:37;95702.19;;;7.68;64.84
20860;BME280;10590;48.154;11.514;2023-04-07T21:30:59;95704.69;;;7.32;66.17
20860;BME280;10590;48.154;11.514;2023-04-07T21:36:23;95713.28;;;7.11;67.09
20860;BME280;10590;48.154;11.514;2023-04-07T21:41:48;95704.13;;;7.03;67.26
20860;BME280;10590;48.154;11.514;2023-04-07T21:47:10;95706.41;;;7.10;67.57
20860;BME280;10590;48.154;11.514;2023-04-07T21:52:31;95702.84;;;6.63;69.00
20860;BME280;10590;48.154;11.514;2023-04-07T21:57:54;95702.69;;;6.73;68.34
20860;BME280;10590;48.154;11.514;2023-04-07T22:03:17;95689.81;;;6.48;68.68
20860;BME280;10590;48.154;11.514;2023-04-07T22:08:38;95720.31;;;6.02;70.69
20860;BME280;10590;48.154;11.514;2023-04-07T22:14:01;95722.91;;;5.84;72.10
20860;BME280;10590;48.154;11.514;2023-04-07T22:19:23;95720.81;;;6.04;71.18
20860;BME280;10590;48.154;11.514;2023-04-07T22:24:45;95717.00;;;5.92;70.89
20860;BME280;10590;48.154;11.514;2023-04-07T22:30:08;95717.28;;;5.90;71.79
20860;BME280;10590;48.154;11.514;2023-04-07T22:35:30;95718.50;;;5.74;71.76
20860;BME280;10590;48.154;11.514;2023-04-07T22:40:52;95717.72;;;5.73;71.76
20860;BME280;10590;48.154;11.514;2023-04-07T22:46:14;95720.69;;;5.67;72.04
20860;BME280;10590;48.154;11.514;2023-04-07T22:51:37;95724.13;;;5.43;72.39
20860;BME280;10590;48.154;11.514;2023-04-07T22:56:59;95719.44;;;5.01;74.70
20860;BME280;10590;48.154;11.514;2023-04-07T23:02:22;95732.34;;;5.08;74.33
20860;BME280;10590;48.154;11.514;2023-04-07T23:07:44;95732.50;;;5.22;74.40
20860;BME280;10590;48.154;11.514;2023-04-07T23:13:05;95738.50;;;4.98;75.19
20860;BME280;10590;48.154;11.514;2023-04-07T23:18:28;95744.78;;;5.07;75.89
20860;BME280;10590;48.154;11.514;2023-04-07T23:23:50;95749.97;;;5.23;76.06
20860;BME280;10590;48.154;11.514;2023-04-07T23:29:13;95750.94;;;5.32;76.00
20860;BME280;10590;48.154;11.514;2023-04-07T23:34:36;95745.19;;;5.20;76.62
20860;BME280;10590;48.154;11.514;2023-04-07T23:39:57;95748.69;;;5.15;76.58
20860;BME280;10590;48.154;11.514;2023-04-07T23:45:19;95752.66;;;5.12;76.92
20860;BME280;10590;48.154;11.514;2023-04-07T23:50:42;95750.06;;;5.07;77.46
20860;BME280;10590;48.154;11.514;2023-04-07T23:56:04;95751.13;;;5.06;77.66
